Terminal Aerodrome Forecast
Issued by NWS

Current Version | Previous Version | Graphics & Text | Print | Product List | Glossary On
Versions: 1 2 3 4 5 6 7 8 9 10 11 12 13 14 15 16 17 18 19 20 21 22 23 24 25 26 27 28
444
FTUS41 KILN 260540
TAFLUK
TAF
KLUK 260540Z 2606/2706 00000KT P6SM FEW050 BKN150
     FM260900 21003KT P6SM BKN025
      TEMPO 2609/2612 3SM BR
     FM261200 21007KT P6SM BKN015
     FM261800 22009KT P6SM BKN035
     FM270100 00000KT P6SM FEW040 SCT250=

USA.gov is the U.S. government's official web portal to all federal, state and local government web resources and services.